sensor_id;sensor_type;location;lat;lon;timestamp;P1;durP1;ratioP1;P2;durP2;ratioP2
22024;SDS011;11176;51.448;6.650;2023-03-03T00:00:47;88.75;;;48.92;;
22024;SDS011;11176;51.448;6.650;2023-03-03T00:03:15;88.53;;;46.80;;
22024;SDS011;11176;51.448;6.650;2023-03-03T00:05:44;90.65;;;48.55;;
22024;SDS011;11176;51.448;6.650;2023-03-03T00:08:11;93.32;;;48.83;;
22024;SDS011;11176;51.448;6.650;2023-03-03T00:10:38;90.80;;;47.72;;
22024;SDS011;11176;51.448;6.650;2023-03-03T00:13:06;89.03;;;48.40;;
22024;SDS011;11176;51.448;6.650;2023-03-03T00:15:40;94.55;;;48.90;;
22024;SDS011;11176;51.448;6.650;2023-03-03T00:18:14;83.18;;;47.65;;
22024;SDS011;11176;51.448;6.650;2023-03-03T00:21:02;90.50;;;48.65;;
22024;SDS011;11176;51.448;6.650;2023-03-03T00:23:38;89.50;;;47.88;;
22024;SDS011;11176;51.448;6.650;2023-03-03T00:26:22;86.60;;;47.97;;
22024;SDS011;11176;51.448;6.650;2023-03-03T00:32:09;87.28;;;47.05;;
22024;SDS011;11176;51.448;6.650;2023-03-03T00:34:50;85.73;;;46.13;;
22024;SDS011;11176;51.448;6.650;2023-03-03T00:37:29;87.47;;;47.83;;
22024;SDS011;11176;51.448;6.650;2023-03-03T00:43:00;99.03;;;50.08;;
22024;SDS011;11176;51.448;6.650;2023-03-03T00:45:50;98.13;;;51.15;;
22024;SDS011;11176;51.448;6.650;2023-03-03T00:50:57;105.72;;;52.33;;
22024;SDS011;11176;51.448;6.650;2023-03-03T00:53:25;110.07;;;53.58;;
22024;SDS011;11176;51.448;6.650;2023-03-03T00:55:53;106.43;;;53.72;;
22024;SDS011;11176;51.448;6.650;2023-03-03T00:58:20;101.05;;;52.95;;
22024;SDS011;11176;51.448;6.650;2023-03-03T01:00:49;102.50;;;51.05;;
22024;SDS011;11176;51.448;6.650;2023-03-03T01:03:20;102.78;;;51.78;;
22024;SDS011;11176;51.448;6.650;2023-03-03T01:05:48;110.43;;;55.33;;
22024;SDS011;11176;51.448;6.650;2023-03-03T01:08:16;99.20;;;49.22;;
22024;SDS011;11176;51.448;6.650;2023-03-03T01:10:45;99.78;;;48.45;;
22024;SDS011;11176;51.448;6.650;2023-03-03T01:13:20;91.90;;;45.47;;
22024;SDS011;11176;51.448;6.650;2023-03-03T01:15:50;91.82;;;46.33;;
22024;SDS011;11176;51.448;6.650;2023-03-03T01:18:17;88.13;;;44.28;;
22024;SDS011;11176;51.448;6.650;2023-03-03T01:20:43;87.03;;;45.33;;
22024;SDS011;11176;51.448;6.650;2023-03-03T01:23:11;92.65;;;45.00;;
22024;SDS011;11176;51.448;6.650;2023-03-03T01:25:38;79.95;;;41.00;;
22024;SDS011;11176;51.448;6.650;2023-03-03T01:28:04;83.32;;;43.67;;
22024;SDS011;11176;51.448;6.650;2023-03-03T01:30:31;84.20;;;43.53;;
22024;SDS011;11176;51.448;6.650;2023-03-03T01:32:57;78.70;;;42.05;;
22024;SDS011;11176;51.448;6.650;2023-03-03T01:35:24;81.00;;;41.67;;
22024;SDS011;11176;51.448;6.650;2023-03-03T01:37:51;79.50;;;40.90;;
22024;SDS011;11176;51.448;6.650;2023-03-03T01:40:19;79.32;;;40.38;;
22024;SDS011;11176;51.448;6.650;2023-03-03T01:42:47;75.25;;;39.25;;
22024;SDS011;11176;51.448;6.650;2023-03-03T01:50:29;78.53;;;40.47;;
22024;SDS011;11176;51.448;6.650;2023-03-03T01:53:02;78.63;;;39.75;;
22024;SDS011;11176;51.448;6.650;2023-03-03T01:55:35;75.80;;;40.40;;
22024;SDS011;11176;51.448;6.650;2023-03-03T01:58:07;73.32;;;40.58;;
22024;SDS011;11176;51.448;6.650;2023-03-03T02:03:07;89.15;;;44.70;;
22024;SDS011;11176;51.448;6.650;2023-03-03T02:05:34;86.45;;;44.70;;
22024;SDS011;11176;51.448;6.650;2023-03-03T02:08:02;82.93;;;45.30;;
22024;SDS011;11176;51.448;6.650;2023-03-03T02:10:29;83.68;;;45.65;;
22024;SDS011;11176;51.448;6.650;2023-03-03T02:12:56;84.55;;;44.08;;
22024;SDS011;11176;51.448;6.650;2023-03-03T02:15:25;81.55;;;43.20;;
22024;SDS011;11176;51.448;6.650;2023-03-03T02:17:57;83.13;;;44.42;;
22024;SDS011;11176;51.448;6.650;2023-03-03T02:25:51;76.55;;;40.65;;
22024;SDS011;11176;51.448;6.650;2023-03-03T02:28:27;77.97;;;42.42;;
22024;SDS011;11176;51.448;6.650;2023-03-03T02:31:00;71.68;;;40.50;;
22024;SDS011;11176;51.448;6.650;2023-03-03T02:33:27;57.45;;;32.55;;
22024;SDS011;11176;51.448;6.650;2023-03-03T02:35:55;53.88;;;30.83;;
22024;SDS011;11176;51.448;6.650;2023-03-03T02:38:34;49.70;;;27.40;;
22024;SDS011;11176;51.448;6.650;2023-03-03T02:43:49;45.33;;;26.45;;
22024;SDS011;11176;51.448;6.650;2023-03-03T02:46:39;47.25;;;27.40;;
22024;SDS011;11176;51.448;6.650;2023-03-03T02:49:08;43.80;;;24.60;;
22024;SDS011;11176;51.448;6.650;2023-03-03T02:51:36;43.97;;;26.00;;
22024;SDS011;11176;51.448;6.650;2023-03-03T02:54:03;44.58;;;25.52;;
22024;SDS011;11176;51.448;6.650;2023-03-03T02:56:31;50.30;;;27.27;;
22024;SDS011;11176;51.448;6.650;2023-03-03T02:58:58;48.75;;;26.60;;
22024;SDS011;11176;51.448;6.650;2023-03-03T03:01:27;49.80;;;27.17;;
22024;SDS011;11176;51.448;6.650;2023-03-03T03:03:55;50.78;;;27.50;;
22024;SDS011;11176;51.448;6.650;2023-03-03T03:06:22;49.15;;;26.45;;
22024;SDS011;11176;51.448;6.650;2023-03-03T03:08:48;50.28;;;26.92;;
22024;SDS011;11176;51.448;6.650;2023-03-03T03:11:15;52.53;;;28.00;;
22024;SDS011;11176;51.448;6.650;2023-03-03T03:13:41;56.70;;;29.25;;
22024;SDS011;11176;51.448;6.650;2023-03-03T03:16:08;57.10;;;27.17;;
22024;SDS011;11176;51.448;6.650;2023-03-03T03:18:35;53.30;;;27.77;;
22024;SDS011;11176;51.448;6.650;2023-03-03T03:21:05;56.33;;;29.48;;
22024;SDS011;11176;51.448;6.650;2023-03-03T03:23:33;52.63;;;28.00;;
22024;SDS011;11176;51.448;6.650;2023-03-03T03:26:00;53.58;;;28.25;;
22024;SDS011;11176;51.448;6.650;2023-03-03T03:28:28;59.80;;;29.23;;
22024;SDS011;11176;51.448;6.650;2023-03-03T03:30:55;56.42;;;28.67;;
22024;SDS011;11176;51.448;6.650;2023-03-03T03:33:23;56.20;;;28.50;;
22024;SDS011;11176;51.448;6.650;2023-03-03T03:35:51;60.55;;;30.65;;
22024;SDS011;11176;51.448;6.650;2023-03-03T03:38:18;59.17;;;30.48;;
22024;SDS011;11176;51.448;6.650;2023-03-03T03:40:46;59.15;;;30.23;;
22024;SDS011;11176;51.448;6.650;2023-03-03T03:43:12;58.72;;;29.55;;
22024;SDS011;11176;51.448;6.650;2023-03-03T03:45:43;58.47;;;29.75;;
22024;SDS011;11176;51.448;6.650;2023-03-03T03:48:11;58.38;;;28.75;;
22024;SDS011;11176;51.448;6.650;2023-03-03T03:50:38;55.63;;;28.05;;
22024;SDS011;11176;51.448;6.650;2023-03-03T03:53:06;53.75;;;27.25;;
22024;SDS011;11176;51.448;6.650;2023-03-03T03:55:33;53.75;;;28.20;;
22024;SDS011;11176;51.448;6.650;2023-03-03T03:57:59;54.63;;;28.58;;
22024;SDS011;11176;51.448;6.650;2023-03-03T04:00:26;53.45;;;27.48;;
22024;SDS011;11176;51.448;6.650;2023-03-03T04:02:57;48.50;;;25.90;;
22024;SDS011;11176;51.448;6.650;2023-03-03T04:05:24;46.58;;;25.75;;
22024;SDS011;11176;51.448;6.650;2023-03-03T04:07:50;50.10;;;27.65;;
22024;SDS011;11176;51.448;6.650;2023-03-03T04:10:18;51.55;;;25.63;;
22024;SDS011;11176;51.448;6.650;2023-03-03T04:12:45;50.90;;;26.38;;
22024;SDS011;11176;51.448;6.650;2023-03-03T04:15:13;53.20;;;28.08;;
22024;SDS011;11176;51.448;6.650;2023-03-03T04:17:41;53.38;;;27.77;;
22024;SDS011;11176;51.448;6.650;2023-03-03T04:20:10;56.70;;;29.23;;
22024;SDS011;11176;51.448;6.650;2023-03-03T04:22:38;52.63;;;28.65;;
22024;SDS011;11176;51.448;6.650;2023-03-03T04:25:05;58.38;;;31.25;;
22024;SDS011;11176;51.448;6.650;2023-03-03T04:27:37;48.83;;;26.37;;
22024;SDS011;11176;51.448;6.650;2023-03-03T04:30:05;46.85;;;25.80;;
22024;SDS011;11176;51.448;6.650;2023-03-03T04:32:32;44.20;;;24.50;;
22024;SDS011;11176;51.448;6.650;2023-03-03T04:35:01;49.40;;;25.13;;
22024;SDS011;11176;51.448;6.650;2023-03-03T04:37:36;48.05;;;25.92;;
22024;SDS011;11176;51.448;6.650;2023-03-03T04:40:05;47.22;;;25.50;;
22024;SDS011;11176;51.448;6.650;2023-03-03T04:42:33;46.40;;;25.52;;
22024;SDS011;11176;51.448;6.650;2023-03-03T04:45:01;52.72;;;26.52;;
22024;SDS011;11176;51.448;6.650;2023-03-03T04:47:29;50.08;;;26.98;;
22024;SDS011;11176;51.448;6.650;2023-03-03T04:49:57;53.50;;;27.13;;
22024;SDS011;11176;51.448;6.650;2023-03-03T04:52:24;55.97;;;29.02;;
22024;SDS011;11176;51.448;6.650;2023-03-03T04:54:50;58.83;;;29.52;;
22024;SDS011;11176;51.448;6.650;2023-03-03T04:57:17;56.25;;;28.70;;
22024;SDS011;11176;51.448;6.650;2023-03-03T04:59:44;57.28;;;29.83;;
22024;SDS011;11176;51.448;6.650;2023-03-03T05:02:11;58.53;;;29.80;;
22024;SDS011;11176;51.448;6.650;2023-03-03T05:04:38;57.70;;;31.05;;
22024;SDS011;11176;51.448;6.650;2023-03-03T05:07:04;64.38;;;32.40;;
22024;SDS011;11176;51.448;6.650;2023-03-03T05:09:31;69.90;;;33.38;;
22024;SDS011;11176;51.448;6.650;2023-03-03T05:11:57;62.30;;;32.30;;
22024;SDS011;11176;51.448;6.650;2023-03-03T05:14:24;66.45;;;32.05;;
22024;SDS011;11176;51.448;6.650;2023-03-03T05:16:52;63.40;;;32.35;;
22024;SDS011;11176;51.448;6.650;2023-03-03T05:19:18;66.10;;;32.20;;
22024;SDS011;11176;51.448;6.650;2023-03-03T05:21:45;68.35;;;32.55;;
22024;SDS011;11176;51.448;6.650;2023-03-03T05:24:12;66.35;;;33.10;;
22024;SDS011;11176;51.448;6.650;2023-03-03T05:26:39;61.28;;;31.67;;
22024;SDS011;11176;51.448;6.650;2023-03-03T05:29:07;68.07;;;33.85;;
22024;SDS011;11176;51.448;6.650;2023-03-03T05:31:35;68.30;;;34.03;;
22024;SDS011;11176;51.448;6.650;2023-03-03T05:34:01;74.05;;;36.42;;
22024;SDS011;11176;51.448;6.650;2023-03-03T05:36:28;77.53;;;38.95;;
22024;SDS011;11176;51.448;6.650;2023-03-03T05:38:54;75.80;;;38.83;;
22024;SDS011;11176;51.448;6.650;2023-03-03T05:41:21;75.90;;;38.83;;
22024;SDS011;11176;51.448;6.650;2023-03-03T05:43:48;74.50;;;35.67;;
22024;SDS011;11176;51.448;6.650;2023-03-03T05:46:14;72.25;;;35.78;;
22024;SDS011;11176;51.448;6.650;2023-03-03T05:48:40;67.47;;;34.08;;
22024;SDS011;11176;51.448;6.650;2023-03-03T05:51:07;74.97;;;36.90;;
22024;SDS011;11176;51.448;6.650;2023-03-03T05:53:34;73.32;;;37.75;;
22024;SDS011;11176;51.448;6.650;2023-03-03T05:56:00;74.35;;;37.70;;
22024;SDS011;11176;51.448;6.650;2023-03-03T05:58:27;68.03;;;34.65;;
22024;SDS011;11176;51.448;6.650;2023-03-03T06:00:53;70.65;;;35.25;;
22024;SDS011;11176;51.448;6.650;2023-03-03T06:03:20;65.28;;;32.13;;
22024;SDS011;11176;51.448;6.650;2023-03-03T06:05:47;55.88;;;30.60;;
22024;SDS011;11176;51.448;6.650;2023-03-03T06:08:13;54.85;;;28.35;;
22024;SDS011;11176;51.448;6.650;2023-03-03T06:10:40;55.55;;;28.60;;
22024;SDS011;11176;51.448;6.650;2023-03-03T06:13:09;51.15;;;27.08;;
22024;SDS011;11176;51.448;6.650;2023-03-03T06:15:36;52.53;;;27.77;;
22024;SDS011;11176;51.448;6.650;2023-03-03T06:18:03;55.22;;;28.48;;
22024;SDS011;11176;51.448;6.650;2023-03-03T06:20:29;52.72;;;27.23;;
22024;SDS011;11176;51.448;6.650;2023-03-03T06:22:56;54.95;;;27.73;;
22024;SDS011;11176;51.448;6.650;2023-03-03T06:25:23;57.42;;;28.13;;
22024;SDS011;11176;51.448;6.650;2023-03-03T06:27:49;58.13;;;28.40;;
22024;SDS011;11176;51.448;6.650;2023-03-03T06:30:16;60.22;;;29.90;;
22024;SDS011;11176;51.448;6.650;2023-03-03T06:32:44;59.45;;;28.70;;
22024;SDS011;11176;51.448;6.650;2023-03-03T06:35:11;58.28;;;29.67;;
22024;SDS011;11176;51.448;6.650;2023-03-03T06:37:37;56.80;;;29.55;;
22024;SDS011;11176;51.448;6.650;2023-03-03T06:40:05;63.40;;;30.73;;
22024;SDS011;11176;51.448;6.650;2023-03-03T06:42:32;61.67;;;29.20;;
22024;SDS011;11176;51.448;6.650;2023-03-03T06:44:58;59.50;;;29.92;;
22024;SDS011;11176;51.448;6.650;2023-03-03T06:47:25;67.53;;;31.42;;
22024;SDS011;11176;51.448;6.650;2023-03-03T06:49:51;59.65;;;29.92;;
22024;SDS011;11176;51.448;6.650;2023-03-03T06:52:22;51.92;;;27.60;;
22024;SDS011;11176;51.448;6.650;2023-03-03T06:54:54;54.57;;;27.13;;
22024;SDS011;11176;51.448;6.650;2023-03-03T06:57:27;57.28;;;29.10;;
22024;SDS011;11176;51.448;6.650;2023-03-03T07:02:42;57.83;;;28.15;;
22024;SDS011;11176;51.448;6.650;2023-03-03T07:05:10;59.28;;;28.17;;
22024;SDS011;11176;51.448;6.650;2023-03-03T07:07:40;59.92;;;27.98;;
22024;SDS011;11176;51.448;6.650;2023-03-03T07:10:26;65.68;;;29.67;;
22024;SDS011;11176;51.448;6.650;2023-03-03T07:12:55;56.03;;;25.35;;
22024;SDS011;11176;51.448;6.650;2023-03-03T07:15:29;51.58;;;25.00;;
22024;SDS011;11176;51.448;6.650;2023-03-03T07:18:00;52.20;;;26.38;;
22024;SDS011;11176;51.448;6.650;2023-03-03T07:20:32;51.88;;;25.77;;
22024;SDS011;11176;51.448;6.650;2023-03-03T07:23:08;53.90;;;25.67;;
22024;SDS011;11176;51.448;6.650;2023-03-03T07:25:59;50.17;;;25.23;;
22024;SDS011;11176;51.448;6.650;2023-03-03T07:28:26;56.67;;;26.80;;
22024;SDS011;11176;51.448;6.650;2023-03-03T07:30:55;51.78;;;25.90;;
22024;SDS011;11176;51.448;6.650;2023-03-03T07:33:26;55.28;;;27.65;;
22024;SDS011;11176;51.448;6.650;2023-03-03T07:36:01;58.92;;;28.25;;
22024;SDS011;11176;51.448;6.650;2023-03-03T07:38:36;53.85;;;26.27;;
22024;SDS011;11176;51.448;6.650;2023-03-03T07:41:17;55.30;;;26.42;;
22024;SDS011;11176;51.448;6.650;2023-03-03T07:43:51;60.72;;;28.42;;
22024;SDS011;11176;51.448;6.650;2023-03-03T07:46:26;63.45;;;29.85;;
22024;SDS011;11176;51.448;6.650;2023-03-03T07:48:57;61.35;;;27.67;;
22024;SDS011;11176;51.448;6.650;2023-03-03T07:51:25;61.92;;;29.13;;
22024;SDS011;11176;51.448;6.650;2023-03-03T07:54:11;58.70;;;28.80;;
22024;SDS011;11176;51.448;6.650;2023-03-03T07:56:43;57.30;;;28.52;;
22024;SDS011;11176;51.448;6.650;2023-03-03T07:59:20;59.95;;;29.67;;
22024;SDS011;11176;51.448;6.650;2023-03-03T08:01:53;62.28;;;28.98;;
22024;SDS011;11176;51.448;6.650;2023-03-03T08:07:30;60.00;;;28.35;;
22024;SDS011;11176;51.448;6.650;2023-03-03T08:10:00;56.15;;;29.48;;
22024;SDS011;11176;51.448;6.650;2023-03-03T08:15:16;53.35;;;27.10;;
22024;SDS011;11176;51.448;6.650;2023-03-03T08:17:44;64.60;;;30.65;;
22024;SDS011;11176;51.448;6.650;2023-03-03T08:23:00;63.75;;;28.95;;
22024;SDS011;11176;51.448;6.650;2023-03-03T08:25:26;62.85;;;27.38;;
22024;SDS011;11176;51.448;6.650;2023-03-03T08:27:52;57.05;;;28.42;;
22024;SDS011;11176;51.448;6.650;2023-03-03T08:30:19;59.30;;;27.48;;
22024;SDS011;11176;51.448;6.650;2023-03-03T08:32:46;55.35;;;25.77;;
22024;SDS011;11176;51.448;6.650;2023-03-03T08:35:13;50.38;;;24.75;;
22024;SDS011;11176;51.448;6.650;2023-03-03T08:37:39;44.45;;;22.30;;
22024;SDS011;11176;51.448;6.650;2023-03-03T08:40:06;45.13;;;22.75;;
22024;SDS011;11176;51.448;6.650;2023-03-03T08:42:33;49.83;;;22.60;;
22024;SDS011;11176;51.448;6.650;2023-03-03T08:44:59;43.28;;;21.13;;
22024;SDS011;11176;51.448;6.650;2023-03-03T08:47:26;48.13;;;22.58;;
22024;SDS011;11176;51.448;6.650;2023-03-03T08:49:52;41.60;;;20.27;;
22024;SDS011;11176;51.448;6.650;2023-03-03T08:52:19;46.50;;;23.30;;
22024;SDS011;11176;51.448;6.650;2023-03-03T08:54:46;44.05;;;21.45;;
22024;SDS011;11176;51.448;6.650;2023-03-03T08:57:12;39.25;;;20.17;;
22024;SDS011;11176;51.448;6.650;2023-03-03T08:59:39;42.42;;;19.20;;
22024;SDS011;11176;51.448;6.650;2023-03-03T09:02:05;43.15;;;20.13;;
22024;SDS011;11176;51.448;6.650;2023-03-03T09:04:32;38.63;;;18.63;;
22024;SDS011;11176;51.448;6.650;2023-03-03T09:06:59;36.03;;;18.05;;
22024;SDS011;11176;51.448;6.650;2023-03-03T09:09:26;35.47;;;18.38;;
22024;SDS011;11176;51.448;6.650;2023-03-03T09:11:54;35.60;;;18.27;;
22024;SDS011;11176;51.448;6.650;2023-03-03T09:14:24;41.90;;;19.52;;
22024;SDS011;11176;51.448;6.650;2023-03-03T09:16:54;42.00;;;19.88;;
22024;SDS011;11176;51.448;6.650;2023-03-03T09:19:25;36.95;;;18.50;;
22024;SDS011;11176;51.448;6.650;2023-03-03T09:22:01;41.42;;;20.80;;
22024;SDS011;11176;51.448;6.650;2023-03-03T09:24:41;43.53;;;20.27;;
22024;SDS011;11176;51.448;6.650;2023-03-03T09:27:24;42.90;;;20.23;;
22024;SDS011;11176;51.448;6.650;2023-03-03T09:29:54;68.78;;;30.30;;
22024;SDS011;11176;51.448;6.650;2023-03-03T09:32:30;79.50;;;37.75;;
22024;SDS011;11176;51.448;6.650;2023-03-03T09:38:39;76.32;;;38.25;;
22024;SDS011;11176;51.448;6.650;2023-03-03T09:54:38;50.05;;;24.23;;
22024;SDS011;11176;51.448;6.650;2023-03-03T10:00:14;55.90;;;26.40;;
22024;SDS011;11176;51.448;6.650;2023-03-03T10:10:55;63.60;;;27.60;;
22024;SDS011;11176;51.448;6.650;2023-03-03T10:13:35;67.03;;;29.40;;
22024;SDS011;11176;51.448;6.650;2023-03-03T10:19:00;55.53;;;24.90;;
22024;SDS011;11176;51.448;6.650;2023-03-03T10:30:06;77.15;;;34.42;;
22024;SDS011;11176;51.448;6.650;2023-03-03T10:33:11;83.07;;;38.58;;
22024;SDS011;11176;51.448;6.650;2023-03-03T10:38:44;93.03;;;44.58;;
22024;SDS011;11176;51.448;6.650;2023-03-03T10:44:02;88.18;;;42.03;;
22024;SDS011;11176;51.448;6.650;2023-03-03T10:50:02;85.47;;;38.58;;
22024;SDS011;11176;51.448;6.650;2023-03-03T10:52:45;67.32;;;34.00;;
22024;SDS011;11176;51.448;6.650;2023-03-03T10:55:34;58.85;;;28.20;;
22024;SDS011;11176;51.448;6.650;2023-03-03T11:04:07;39.10;;;18.88;;
22024;SDS011;11176;51.448;6.650;2023-03-03T11:06:59;38.58;;;18.27;;
22024;SDS011;11176;51.448;6.650;2023-03-03T11:12:14;47.63;;;22.97;;
22024;SDS011;11176;51.448;6.650;2023-03-03T11:14:44;55.90;;;28.70;;
22024;SDS011;11176;51.448;6.650;2023-03-03T11:22:44;46.05;;;23.65;;
22024;SDS011;11176;51.448;6.650;2023-03-03T11:27:59;48.22;;;25.17;;
22024;SDS011;11176;51.448;6.650;2023-03-03T11:30:39;60.67;;;29.00;;
22024;SDS011;11176;51.448;6.650;2023-03-03T11:33:17;56.05;;;27.20;;
22024;SDS011;11176;51.448;6.650;2023-03-03T11:38:23;55.60;;;30.25;;
22024;SDS011;11176;51.448;6.650;2023-03-03T11:41:02;57.60;;;31.35;;
22024;SDS011;11176;51.448;6.650;2023-03-03T11:43:43;70.47;;;36.33;;
22024;SDS011;11176;51.448;6.650;2023-03-03T11:46:16;68.10;;;34.65;;
22024;SDS011;11176;51.448;6.650;2023-03-03T11:51:43;59.10;;;30.35;;
22024;SDS011;11176;51.448;6.650;2023-03-03T11:54:21;58.95;;;30.10;;
22024;SDS011;11176;51.448;6.650;2023-03-03T11:56:56;73.28;;;34.97;;
22024;SDS011;11176;51.448;6.650;2023-03-03T11:59:47;64.63;;;33.47;;
22024;SDS011;11176;51.448;6.650;2023-03-03T12:02:44;59.53;;;33.28;;
22024;SDS011;11176;51.448;6.650;2023-03-03T12:08:07;52.95;;;27.50;;
22024;SDS011;11176;51.448;6.650;2023-03-03T12:13:41;60.67;;;32.20;;
22024;SDS011;11176;51.448;6.650;2023-03-03T12:24:38;61.00;;;33.97;;
22024;SDS011;11176;51.448;6.650;2023-03-03T12:27:25;67.32;;;36.05;;
22024;SDS011;11176;51.448;6.650;2023-03-03T12:33:00;61.35;;;33.03;;
22024;SDS011;11176;51.448;6.650;2023-03-03T12:50:22;70.47;;;36.53;;
22024;SDS011;11176;51.448;6.650;2023-03-03T12:58:23;61.90;;;33.58;;
22024;SDS011;11176;51.448;6.650;2023-03-03T13:06:32;56.38;;;30.40;;
22024;SDS011;11176;51.448;6.650;2023-03-03T13:14:29;48.10;;;25.00;;
22024;SDS011;11176;51.448;6.650;2023-03-03T13:19:42;33.38;;;17.85;;
22024;SDS011;11176;51.448;6.650;2023-03-03T13:22:17;31.00;;;16.70;;
22024;SDS011;11176;51.448;6.650;2023-03-03T13:27:49;25.45;;;14.85;;
22024;SDS011;11176;51.448;6.650;2023-03-03T13:30:22;25.08;;;14.30;;
22024;SDS011;11176;51.448;6.650;2023-03-03T13:32:58;24.27;;;14.32;;
22024;SDS011;11176;51.448;6.650;2023-03-03T13:36:02;24.52;;;12.68;;
22024;SDS011;11176;51.448;6.650;2023-03-03T13:38:52;23.30;;;13.02;;
22024;SDS011;11176;51.448;6.650;2023-03-03T13:41:24;23.40;;;12.30;;
22024;SDS011;11176;51.448;6.650;2023-03-03T13:43:54;22.85;;;12.85;;
22024;SDS011;11176;51.448;6.650;2023-03-03T13:49:30;25.60;;;13.23;;
22024;SDS011;11176;51.448;6.650;2023-03-03T13:52:02;25.33;;;13.13;;
22024;SDS011;11176;51.448;6.650;2023-03-03T14:00:26;23.27;;;13.13;;
22024;SDS011;11176;51.448;6.650;2023-03-03T14:05:40;22.00;;;13.60;;
22024;SDS011;11176;51.448;6.650;2023-03-03T14:11:21;26.80;;;14.38;;
22024;SDS011;11176;51.448;6.650;2023-03-03T14:19:32;21.88;;;13.15;;
22024;SDS011;11176;51.448;6.650;2023-03-03T14:25:01;24.23;;;13.82;;
22024;SDS011;11176;51.448;6.650;2023-03-03T14:27:36;21.73;;;11.93;;
22024;SDS011;11176;51.448;6.650;2023-03-03T14:35:33;21.00;;;11.25;;
22024;SDS011;11176;51.448;6.650;2023-03-03T14:38:11;22.48;;;12.13;;
22024;SDS011;11176;51.448;6.650;2023-03-03T14:40:39;24.80;;;13.30;;
22024;SDS011;11176;51.448;6.650;2023-03-03T14:43:32;22.67;;;11.63;;
22024;SDS011;11176;51.448;6.650;2023-03-03T14:46:20;24.23;;;12.77;;
22024;SDS011;11176;51.448;6.650;2023-03-03T14:49:03;22.92;;;12.48;;
22024;SDS011;11176;51.448;6.650;2023-03-03T14:51:51;24.88;;;12.80;;
22024;SDS011;11176;51.448;6.650;2023-03-03T14:54:27;22.00;;;12.35;;
22024;SDS011;11176;51.448;6.650;2023-03-03T15:05:54;22.70;;;12.30;;
22024;SDS011;11176;51.448;6.650;2023-03-03T15:08:30;23.10;;;12.63;;
22024;SDS011;11176;51.448;6.650;2023-03-03T15:11:33;21.83;;;10.63;;
22024;SDS011;11176;51.448;6.650;2023-03-03T15:14:02;24.30;;;12.27;;
22024;SDS011;11176;51.448;6.650;2023-03-03T15:16:35;21.77;;;11.75;;
22024;SDS011;11176;51.448;6.650;2023-03-03T15:19:17;21.83;;;11.65;;
22024;SDS011;11176;51.448;6.650;2023-03-03T15:22:13;23.08;;;12.43;;
22024;SDS011;11176;51.448;6.650;2023-03-03T15:25:03;21.25;;;11.10;;
22024;SDS011;11176;51.448;6.650;2023-03-03T15:30:50;24.70;;;13.82;;
22024;SDS011;11176;51.448;6.650;2023-03-03T15:33:31;23.17;;;12.65;;
22024;SDS011;11176;51.448;6.650;2023-03-03T15:36:07;22.08;;;12.02;;
22024;SDS011;11176;51.448;6.650;2023-03-03T15:38:43;22.25;;;11.48;;
22024;SDS011;11176;51.448;6.650;2023-03-03T15:41:34;21.70;;;12.65;;
22024;SDS011;11176;51.448;6.650;2023-03-03T15:44:12;24.65;;;13.07;;
22024;SDS011;11176;51.448;6.650;2023-03-03T15:50:02;21.13;;;12.18;;
22024;SDS011;11176;51.448;6.650;2023-03-03T15:55:19;21.92;;;12.68;;
22024;SDS011;11176;51.448;6.650;2023-03-03T15:57:58;23.73;;;13.32;;
22024;SDS011;11176;51.448;6.650;2023-03-03T16:00:51;23.70;;;12.73;;
22024;SDS011;11176;51.448;6.650;2023-03-03T16:03:37;21.33;;;11.75;;
22024;SDS011;11176;51.448;6.650;2023-03-03T16:06:14;21.08;;;12.05;;
22024;SDS011;11176;51.448;6.650;2023-03-03T16:08:48;21.10;;;11.63;;
22024;SDS011;11176;51.448;6.650;2023-03-03T16:11:38;21.52;;;12.10;;
22024;SDS011;11176;51.448;6.650;2023-03-03T16:16:53;22.85;;;12.93;;
22024;SDS011;11176;51.448;6.650;2023-03-03T16:25:23;24.70;;;14.00;;
22024;SDS011;11176;51.448;6.650;2023-03-03T16:27:58;25.30;;;13.88;;
22024;SDS011;11176;51.448;6.650;2023-03-03T16:35:41;30.10;;;16.30;;
22024;SDS011;11176;51.448;6.650;2023-03-03T16:38:16;25.40;;;14.57;;
22024;SDS011;11176;51.448;6.650;2023-03-03T16:40:59;23.02;;;13.70;;
22024;SDS011;11176;51.448;6.650;2023-03-03T16:45:56;21.75;;;13.43;;
22024;SDS011;11176;51.448;6.650;2023-03-03T16:56:42;26.48;;;14.43;;
22024;SDS011;11176;51.448;6.650;2023-03-03T17:04:54;24.40;;;14.82;;
22024;SDS011;11176;51.448;6.650;2023-03-03T17:07:50;23.85;;;13.95;;
22024;SDS011;11176;51.448;6.650;2023-03-03T17:10:41;26.58;;;15.48;;
22024;SDS011;11176;51.448;6.650;2023-03-03T17:13:20;24.83;;;14.57;;
22024;SDS011;11176;51.448;6.650;2023-03-03T17:22:22;29.65;;;15.95;;
22024;SDS011;11176;51.448;6.650;2023-03-03T17:25:13;32.13;;;18.35;;
22024;SDS011;11176;51.448;6.650;2023-03-03T17:27:53;30.88;;;19.10;;
22024;SDS011;11176;51.448;6.650;2023-03-03T17:30:47;28.10;;;17.15;;
22024;SDS011;11176;51.448;6.650;2023-03-03T17:38:59;29.27;;;16.42;;
22024;SDS011;11176;51.448;6.650;2023-03-03T17:41:47;25.25;;;16.15;;
22024;SDS011;11176;51.448;6.650;2023-03-03T17:44:54;28.65;;;17.17;;
22024;SDS011;11176;51.448;6.650;2023-03-03T17:56:10;33.00;;;18.85;;
22024;SDS011;11176;51.448;6.650;2023-03-03T18:01:39;28.73;;;17.48;;
22024;SDS011;11176;51.448;6.650;2023-03-03T18:04:39;30.20;;;17.70;;
22024;SDS011;11176;51.448;6.650;2023-03-03T18:07:32;30.98;;;17.77;;
22024;SDS011;11176;51.448;6.650;2023-03-03T18:10:17;34.10;;;18.10;;
22024;SDS011;11176;51.448;6.650;2023-03-03T18:18:08;32.42;;;19.17;;
22024;SDS011;11176;51.448;6.650;2023-03-03T18:21:13;33.10;;;19.33;;
22024;SDS011;11176;51.448;6.650;2023-03-03T18:23:46;34.33;;;19.90;;
22024;SDS011;11176;51.448;6.650;2023-03-03T18:26:33;34.78;;;20.48;;
22024;SDS011;11176;51.448;6.650;2023-03-03T18:42:08;32.22;;;19.42;;
22024;SDS011;11176;51.448;6.650;2023-03-03T18:44:37;33.67;;;18.48;;
22024;SDS011;11176;51.448;6.650;2023-03-03T18:47:04;28.77;;;17.65;;
22024;SDS011;11176;51.448;6.650;2023-03-03T18:50:12;30.90;;;17.95;;
22024;SDS011;11176;51.448;6.650;2023-03-03T18:52:31;28.48;;;18.17;;
22024;SDS011;11176;51.448;6.650;2023-03-03T18:57:36;34.22;;;18.52;;
22024;SDS011;11176;51.448;6.650;2023-03-03T19:03:08;30.08;;;17.67;;
22024;SDS011;11176;51.448;6.650;2023-03-03T19:05:53;32.97;;;18.73;;
22024;SDS011;11176;51.448;6.650;2023-03-03T19:08:24;28.85;;;16.45;;
22024;SDS011;11176;51.448;6.650;2023-03-03T19:14:12;26.63;;;14.95;;
22024;SDS011;11176;51.448;6.650;2023-03-03T19:16:44;23.90;;;13.82;;
22024;SDS011;11176;51.448;6.650;2023-03-03T19:19:11;24.55;;;13.93;;
22024;SDS011;11176;51.448;6.650;2023-03-03T19:21:40;25.55;;;14.02;;
22024;SDS011;11176;51.448;6.650;2023-03-03T19:24:23;25.67;;;13.98;;
22024;SDS011;11176;51.448;6.650;2023-03-03T19:35:03;25.58;;;13.85;;
22024;SDS011;11176;51.448;6.650;2023-03-03T19:37:44;22.88;;;13.50;;
22024;SDS011;11176;51.448;6.650;2023-03-03T19:46:16;20.63;;;12.40;;
22024;SDS011;11176;51.448;6.650;2023-03-03T19:49:17;22.25;;;12.68;;
22024;SDS011;11176;51.448;6.650;2023-03-03T19:51:58;17.83;;;11.00;;
22024;SDS011;11176;51.448;6.650;2023-03-03T19:59:56;20.33;;;11.38;;
22024;SDS011;11176;51.448;6.650;2023-03-03T20:02:56;20.98;;;11.63;;